createdAt,value
2023-05-08T00:00:22.949Z,0.00
2023-05-08T00:01:22.740Z,0.02
2023-05-08T00:02:22.977Z,0.02
2023-05-08T00:03:23.175Z,0.00
2023-05-08T00:04:23.323Z,0.00
2023-05-08T00:05:23.359Z,0.02
2023-05-08T00:06:22.483Z,0.02
2023-05-08T00:07:23.634Z,0.02
2023-05-08T00:08:23.782Z,0.00
2023-05-08T00:09:23.931Z,0.00
2023-05-08T00:10:24.094Z,0.02
2023-05-08T00:11:23.364Z,0.00
2023-05-08T00:12:22.444Z,0.00
2023-05-08T00:13:23.619Z,0.02
2023-05-08T00:14:23.698Z,0.02
2023-05-08T00:15:23.887Z,0.00
2023-05-08T00:16:24.150Z,0.02
2023-05-08T00:17:23.515Z,0.02
2023-05-08T00:18:22.374Z,0.00
2023-05-08T00:19:23.521Z,0.00
2023-05-08T00:20:22.711Z,0.02
2023-05-08T00:21:22.893Z,0.02
2023-05-08T00:22:24.025Z,0.00
2023-05-08T00:23:23.614Z,0.00
2023-05-08T00:24:22.395Z,0.00
2023-05-08T00:25:22.587Z,0.00
2023-05-08T00:26:22.753Z,0.00
2023-05-08T00:27:23.860Z,0.02
2023-05-08T00:28:23.102Z,0.02
2023-05-08T00:29:22.263Z,0.00
2023-05-08T00:30:22.408Z,0.00
2023-05-08T00:31:22.620Z,0.00
2023-05-08T00:32:23.720Z,0.02
2023-05-08T00:33:23.976Z,0.02
2023-05-08T00:34:23.063Z,0.00
2023-05-08T00:35:23.116Z,0.00
2023-05-08T00:36:23.302Z,0.02
2023-05-08T00:37:22.550Z,0.02
2023-05-08T00:38:22.687Z,0.00
2023-05-08T00:39:22.928Z,0.00
2023-05-08T00:40:23.058Z,0.00
2023-05-08T00:41:22.225Z,0.00
2023-05-08T00:42:22.314Z,0.02
2023-05-08T00:43:22.501Z,0.02
2023-05-08T00:44:22.679Z,0.02
2023-05-08T00:45:22.922Z,0.02
2023-05-08T00:46:22.041Z,0.00
2023-05-08T00:47:22.179Z,0.00
2023-05-08T00:48:22.368Z,0.00
2023-05-08T00:49:22.558Z,0.00
2023-05-08T00:50:22.649Z,0.00
2023-05-08T00:51:22.907Z,0.00
2023-05-08T00:52:21.992Z,0.00
2023-05-08T00:53:22.151Z,0.02
2023-05-08T00:54:22.309Z,0.00
2023-05-08T00:55:22.478Z,0.00
2023-05-08T00:56:22.630Z,0.02
2023-05-08T00:57:22.850Z,0.00
2023-05-08T00:58:21.902Z,0.00
2023-05-08T00:59:23.025Z,0.00
2023-05-08T01:00:22.197Z,0.00
2023-05-08T01:01:22.355Z,0.00
2023-05-08T01:02:22.614Z,0.00
2023-05-08T01:03:22.832Z,0.00
2023-05-08T01:04:22.834Z,0.00
2023-05-08T01:05:22.946Z,0.00
2023-05-08T01:06:22.123Z,0.00
2023-05-08T01:07:22.300Z,0.00
2023-05-08T01:08:23.427Z,0.02
2023-05-08T01:09:22.638Z,0.02
2023-05-08T01:10:21.781Z,0.00
2023-05-08T01:11:21.895Z,0.00
2023-05-08T01:12:22.063Z,0.00
2023-05-08T01:13:22.330Z,0.00
2023-05-08T01:14:22.401Z,0.00
2023-05-08T01:15:22.661Z,0.00
2023-05-08T01:16:21.691Z,0.02
2023-05-08T01:17:21.862Z,0.02
2023-05-08T01:18:21.997Z,0.02
2023-05-08T01:19:22.189Z,0.00
2023-05-08T01:20:22.317Z,0.02
2023-05-08T01:21:22.551Z,0.00
2023-05-08T01:22:22.560Z,0.00
2023-05-08T01:23:22.739Z,0.00
2023-05-08T01:24:22.898Z,0.02
2023-05-08T01:25:22.035Z,0.00
2023-05-08T01:26:22.209Z,0.02
2023-05-08T01:27:22.401Z,0.00
2023-05-08T01:28:21.546Z,0.00
2023-05-08T01:29:21.660Z,0.02
2023-05-08T01:30:21.780Z,0.02
2023-05-08T01:31:21.945Z,0.00
2023-05-08T01:32:22.178Z,0.00
2023-05-08T01:33:22.393Z,0.00
2023-05-08T01:34:21.378Z,0.02
2023-05-08T01:35:22.500Z,0.00
2023-05-08T01:36:22.650Z,0.02
2023-05-08T01:37:22.790Z,0.00
2023-05-08T01:38:22.924Z,0.00
2023-05-08T01:39:22.269Z,0.00
2023-05-08T01:40:23.252Z,0.00
2023-05-08T01:41:21.382Z,0.00
2023-05-08T01:42:22.567Z,0.02
2023-05-08T01:43:22.645Z,0.02
2023-05-08T01:44:22.784Z,0.00
2023-05-08T01:45:22.092Z,0.00
2023-05-08T01:46:23.109Z,0.00
2023-05-08T01:47:22.187Z,0.00
2023-05-08T01:48:22.319Z,0.00
2023-05-08T01:49:21.526Z,0.00
2023-05-08T01:50:21.694Z,0.00
2023-05-08T01:51:21.913Z,0.00
2023-05-08T01:52:21.957Z,0.00
2023-05-08T01:53:23.118Z,0.00
2023-05-08T01:54:21.277Z,0.00
2023-05-08T01:55:21.447Z,0.02
2023-05-08T01:56:21.689Z,0.00
2023-05-08T01:57:21.891Z,0.00
2023-05-08T01:58:22.925Z,0.00
2023-05-08T01:59:22.083Z,0.00
2023-05-08T02:00:22.239Z,0.00
2023-05-08T02:01:21.487Z,0.00
2023-05-08T02:02:22.720Z,0.02
2023-05-08T02:03:21.866Z,0.00
2023-05-08T02:04:21.927Z,0.00
2023-05-08T02:05:21.989Z,0.02
2023-05-08T02:06:22.166Z,0.00
2023-05-08T02:07:22.362Z,0.00
2023-05-08T02:08:21.472Z,0.00
2023-05-08T02:09:21.797Z,0.00
2023-05-08T02:10:22.786Z,0.00
2023-05-08T02:11:20.958Z,0.00
2023-05-08T02:12:22.059Z,0.02
2023-05-08T02:13:22.436Z,0.00
2023-05-08T02:14:22.388Z,0.00
2023-05-08T02:15:21.617Z,0.00
2023-05-08T02:16:21.766Z,0.00
2023-05-08T02:17:21.893Z,0.02
2023-05-08T02:18:21.106Z,0.02
2023-05-08T02:19:22.208Z,0.00
2023-05-08T02:20:22.427Z,0.00
2023-05-08T02:21:21.702Z,0.02
2023-05-08T02:22:21.750Z,0.00
2023-05-08T02:23:21.824Z,0.00
2023-05-08T02:24:22.047Z,0.00
2023-05-08T02:25:21.166Z,0.00
2023-05-08T02:26:21.362Z,0.00
2023-05-08T02:27:21.547Z,0.00
2023-05-08T02:28:41.652Z,0.00
2023-05-08T02:29:20.895Z,0.02
2023-05-08T02:30:20.962Z,0.02
2023-05-08T02:31:21.169Z,0.02
2023-05-08T02:32:21.428Z,0.02
2023-05-08T02:33:21.552Z,0.00
2023-05-08T02:34:20.614Z,0.02
2023-05-08T02:35:21.224Z,0.00
2023-05-08T02:36:20.899Z,0.00
2023-05-08T02:37:22.054Z,0.00
2023-05-08T02:38:21.251Z,0.00
2023-05-08T02:39:21.452Z,0.00
2023-05-08T02:40:21.518Z,0.02
2023-05-08T02:41:21.688Z,0.02
2023-05-08T02:42:20.893Z,0.02
2023-05-08T02:43:21.032Z,0.00
2023-05-08T02:44:22.231Z,0.02
2023-05-08T02:45:21.342Z,0.00
2023-05-08T02:46:21.498Z,0.02
2023-05-08T02:47:20.658Z,0.02
2023-05-08T02:48:21.787Z,0.00
2023-05-08T02:49:20.911Z,0.00
2023-05-08T02:50:22.030Z,0.00
2023-05-08T02:51:21.351Z,0.00
2023-05-08T02:52:20.284Z,0.00
2023-05-08T02:53:20.470Z,0.02
2023-05-08T02:54:20.599Z,0.02
2023-05-08T02:55:20.745Z,0.00
2023-05-08T02:56:20.889Z,0.00
2023-05-08T02:57:21.125Z,0.02
2023-05-08T02:58:21.169Z,0.00
2023-05-08T02:59:20.320Z,0.02
2023-05-08T03:00:20.498Z,0.00
2023-05-08T03:01:20.567Z,0.02
2023-05-08T03:02:20.746Z,0.00
2023-05-08T03:03:21.057Z,0.00
2023-05-08T03:04:21.965Z,0.00
2023-05-08T03:05:21.174Z,0.00
2023-05-08T03:06:20.238Z,0.00
2023-05-08T03:07:21.368Z,0.00
2023-05-08T03:08:20.535Z,0.00
2023-05-08T03:09:20.752Z,0.00
2023-05-08T03:10:20.827Z,0.02
2023-05-08T03:11:20.994Z,0.02
2023-05-08T03:12:20.144Z,0.07
2023-05-08T03:13:21.278Z,0.02
2023-05-08T03:14:20.382Z,0.02
2023-05-08T03:15:20.884Z,0.01
2023-05-08T03:16:20.757Z,0.01
2023-05-08T03:17:20.826Z,0.01
2023-05-08T03:18:19.965Z,0.05
2023-05-08T03:19:23.143Z,0.01
2023-05-08T03:20:20.233Z,0.03
2023-05-08T03:21:20.427Z,0.03
2023-05-08T03:22:21.511Z,0.02
2023-05-08T03:23:21.710Z,0.02
2023-05-08T03:24:19.885Z,0.03
2023-05-08T03:25:20.006Z,0.14
2023-05-08T03:26:21.191Z,0.04
2023-05-08T03:27:20.473Z,0.03
2023-05-08T03:28:20.564Z,0.04
2023-05-08T03:29:20.745Z,0.04
2023-05-08T03:30:19.872Z,0.05
2023-05-08T03:31:20.130Z,0.16
2023-05-08T03:32:20.238Z,0.14
2023-05-08T03:33:20.439Z,0.25
2023-05-08T03:34:20.484Z,0.12
2023-05-08T03:35:20.690Z,0.08
2023-05-08T03:36:19.764Z,0.10
2023-05-08T03:37:19.972Z,0.11
2023-05-08T03:38:20.134Z,0.14
2023-05-08T03:39:20.335Z,0.30
2023-05-08T03:40:20.487Z,0.17
2023-05-08T03:41:20.658Z,0.19
2023-05-08T03:42:19.842Z,0.21
2023-05-08T03:43:20.025Z,0.32
2023-05-08T03:44:20.166Z,0.37
2023-05-08T03:45:20.418Z,0.45
2023-05-08T03:46:20.591Z,0.52
2023-05-08T03:47:20.659Z,0.54
2023-05-08T03:48:19.871Z,0.70
2023-05-08T03:49:20.103Z,0.80
2023-05-08T03:50:20.272Z,1.06
2023-05-08T03:51:20.554Z,1.25
2023-05-08T03:52:19.578Z,1.45
2023-05-08T03:53:19.749Z,1.48
2023-05-08T03:54:19.901Z,1.86
2023-05-08T03:55:20.090Z,2.06
2023-05-08T03:56:21.256Z,2.08
2023-05-08T03:57:20.482Z,2.36
2023-05-08T03:58:19.546Z,2.47
2023-05-08T03:59:19.777Z,2.63
2023-05-08T04:00:19.887Z,3.22
2023-05-08T04:01:20.072Z,3.19
2023-05-08T04:02:20.278Z,3.57
2023-05-08T04:03:20.874Z,4.13
2023-05-08T04:04:19.530Z,4.47
2023-05-08T04:05:19.665Z,4.61
2023-05-08T04:06:19.778Z,5.22
2023-05-08T04:07:19.922Z,5.80
2023-05-08T04:08:20.145Z,6.12
2023-05-08T04:09:21.295Z,6.53
2023-05-08T04:10:19.402Z,7.06
2023-05-08T04:11:19.627Z,7.62
2023-05-08T04:12:19.754Z,7.93
2023-05-08T04:13:20.001Z,8.02
2023-05-08T04:14:20.113Z,8.31
2023-05-08T04:15:20.191Z,8.26
2023-05-08T04:16:19.489Z,8.30
2023-05-08T04:17:19.621Z,8.35
2023-05-08T04:18:19.753Z,8.21
2023-05-08T04:19:19.864Z,8.39
2023-05-08T04:20:20.089Z,8.38
2023-05-08T04:21:19.165Z,8.59
2023-05-08T04:22:19.334Z,8.51
2023-05-08T04:23:19.492Z,8.45
2023-05-08T04:24:19.663Z,8.74
2023-05-08T04:25:19.799Z,9.11
2023-05-08T04:26:20.960Z,9.25
2023-05-08T04:27:19.100Z,9.58
2023-05-08T04:28:19.321Z,10.01
2023-05-08T04:29:19.431Z,10.52
2023-05-08T04:30:19.573Z,11.07
2023-05-08T04:31:19.813Z,11.75
2023-05-08T04:32:20.045Z,12.31
2023-05-08T04:33:19.143Z,12.76
2023-05-08T04:34:19.210Z,12.99
2023-05-08T04:35:19.347Z,13.43
2023-05-08T04:36:19.521Z,14.14
2023-05-08T04:37:19.654Z,14.64
2023-05-08T04:38:19.867Z,14.69
2023-05-08T04:39:18.931Z,15.29
2023-05-08T04:40:19.101Z,15.59
2023-05-08T04:41:19.304Z,16.09
2023-05-08T04:42:19.402Z,16.42
2023-05-08T04:43:19.586Z,16.60
2023-05-08T04:44:19.750Z,16.83
2023-05-08T04:45:19.858Z,17.58
2023-05-08T04:46:20.209Z,18.01
2023-05-08T04:47:20.168Z,18.40
2023-05-08T04:48:20.355Z,18.90
2023-05-08T04:49:19.496Z,19.02
2023-05-08T04:50:19.736Z,18.89
2023-05-08T04:51:18.805Z,18.14
2023-05-08T04:52:18.988Z,18.24
2023-05-08T04:53:19.197Z,18.29
2023-05-08T04:54:19.283Z,18.30
2023-05-08T04:55:19.496Z,18.44
2023-05-08T04:56:19.709Z,18.88
2023-05-08T04:57:18.798Z,18.93
2023-05-08T04:58:18.933Z,19.37
2023-05-08T04:59:19.069Z,19.37
2023-05-08T05:00:19.251Z,19.47
2023-05-08T05:01:19.451Z,19.36
2023-05-08T05:02:19.664Z,19.68
2023-05-08T05:03:18.871Z,20.26
2023-05-08T05:04:18.868Z,21.70
2023-05-08T05:05:19.997Z,23.31
2023-05-08T05:06:20.675Z,24.80
2023-05-08T05:07:19.361Z,26.40
2023-05-08T05:08:19.583Z,28.41
2023-05-08T05:09:19.132Z,29.97
2023-05-08T05:10:18.842Z,31.62
2023-05-08T05:11:18.970Z,32.48
2023-05-08T05:12:19.158Z,34.01
2023-05-08T05:13:20.457Z,36.13
2023-05-08T05:14:19.617Z,37.42
2023-05-08T05:15:20.732Z,38.61
2023-05-08T05:16:18.920Z,40.36
2023-05-08T05:17:19.485Z,41.84
2023-05-08T05:18:19.193Z,43.18
2023-05-08T05:19:18.334Z,43.59
2023-05-08T05:20:18.639Z,43.60
2023-05-08T05:21:18.718Z,44.50
2023-05-08T05:22:18.932Z,43.68
2023-05-08T05:23:19.118Z,43.36
2023-05-08T05:24:19.322Z,44.11
2023-05-08T05:25:18.484Z,45.10
2023-05-08T05:26:19.683Z,46.30
2023-05-08T05:27:21.170Z,47.82
2023-05-08T05:28:19.024Z,48.58
2023-05-08T05:29:20.153Z,49.57
2023-05-08T05:30:18.326Z,49.99
2023-05-08T05:31:18.618Z,50.61
2023-05-08T05:32:18.841Z,51.25
2023-05-08T05:33:18.853Z,52.16
2023-05-08T05:34:19.029Z,53.28
2023-05-08T05:35:18.162Z,53.80
2023-05-08T05:36:18.388Z,55.07
2023-05-08T05:37:18.540Z,58.30
2023-05-08T05:38:20.265Z,60.98
2023-05-08T05:39:24.058Z,63.57
2023-05-08T05:40:19.027Z,66.09
2023-05-08T05:41:18.165Z,70.42
2023-05-08T05:42:18.333Z,74.38
2023-05-08T05:43:18.509Z,75.91
2023-05-08T05:44:18.730Z,78.94
2023-05-08T05:45:18.842Z,79.30
2023-05-08T05:46:19.076Z,79.27
2023-05-08T05:47:18.234Z,78.88
2023-05-08T05:48:18.297Z,82.05
2023-05-08T05:49:19.422Z,86.79
2023-05-08T05:50:19.691Z,91.59
2023-05-08T05:51:18.756Z,96.68
2023-05-08T05:52:19.906Z,101.36
2023-05-08T05:53:19.000Z,104.90
2023-05-08T05:54:18.230Z,107.84
2023-05-08T05:55:19.353Z,110.87
2023-05-08T05:56:19.528Z,114.49
2023-05-08T05:57:18.693Z,118.05
2023-05-08T05:58:19.351Z,121.05
2023-05-08T05:59:18.983Z,123.71
2023-05-08T06:00:18.189Z,125.93
2023-05-08T06:01:18.348Z,128.28
2023-05-08T06:02:19.078Z,131.26
2023-05-08T06:03:18.846Z,134.70
2023-05-08T06:04:17.955Z,139.01
2023-05-08T06:05:17.985Z,143.02
2023-05-08T06:06:18.204Z,146.22
2023-05-08T06:07:18.321Z,147.88
2023-05-08T06:08:18.493Z,148.65
2023-05-08T06:09:18.618Z,149.45
2023-05-08T06:10:17.774Z,150.17
2023-05-08T06:11:17.888Z,151.35
2023-05-08T06:12:19.104Z,152.46
2023-05-08T06:13:18.329Z,154.20
2023-05-08T06:14:19.380Z,168.43
2023-05-08T06:15:18.546Z,182.29
2023-05-08T06:16:17.766Z,193.61
2023-05-08T06:17:17.882Z,205.57
2023-05-08T06:18:18.012Z,215.93
2023-05-08T06:19:18.170Z,224.33
2023-05-08T06:20:18.418Z,230.40
2023-05-08T06:21:18.559Z,234.32
2023-05-08T06:22:17.666Z,236.52
2023-05-08T06:23:17.874Z,238.19
2023-05-08T06:24:18.014Z,235.01
2023-05-08T06:25:18.174Z,230.63
2023-05-08T06:26:18.443Z,221.35
2023-05-08T06:27:17.519Z,221.86
2023-05-08T06:28:17.622Z,229.12
2023-05-08T06:29:17.799Z,235.70
2023-05-08T06:30:17.916Z,241.07
2023-05-08T06:31:18.123Z,245.84
2023-05-08T06:32:18.324Z,248.49
2023-05-08T06:33:18.394Z,251.90
2023-05-08T06:34:17.646Z,256.21
2023-05-08T06:35:17.663Z,261.26
2023-05-08T06:36:17.780Z,267.53
2023-05-08T06:37:17.950Z,273.22
2023-05-08T06:38:18.093Z,278.75
2023-05-08T06:39:19.244Z,282.14
2023-05-08T06:40:18.348Z,284.77
2023-05-08T06:41:17.442Z,285.31
2023-05-08T06:42:17.586Z,283.14
2023-05-08T06:43:17.729Z,278.57
2023-05-08T06:44:18.621Z,273.30
2023-05-08T06:45:18.137Z,268.62
2023-05-08T06:46:18.209Z,263.17
2023-05-08T06:47:17.284Z,258.73
2023-05-08T06:48:17.487Z,255.41
2023-05-08T06:49:17.596Z,252.91
2023-05-08T06:50:17.798Z,251.78
2023-05-08T06:51:17.922Z,249.96
2023-05-08T06:52:19.124Z,248.45
2023-05-08T06:53:18.200Z,247.32
2023-05-08T06:54:17.415Z,246.47
2023-05-08T06:55:17.585Z,246.57
2023-05-08T06:56:17.817Z,246.63
2023-05-08T06:57:17.898Z,247.35
2023-05-08T06:58:17.047Z,247.73
2023-05-08T06:59:17.241Z,248.06
2023-05-08T07:00:17.423Z,248.68
2023-05-08T07:01:17.628Z,249.32
2023-05-08T07:02:17.750Z,249.27
2023-05-08T07:03:17.905Z,249.92
2023-05-08T07:04:17.104Z,249.72
2023-05-08T07:05:17.598Z,249.78
2023-05-08T07:06:17.412Z,249.93
2023-05-08T07:07:18.501Z,250.97
2023-05-08T07:08:17.759Z,250.88
2023-05-08T07:09:18.847Z,250.73
2023-05-08T07:10:17.986Z,250.62
2023-05-08T07:11:17.166Z,251.15
2023-05-08T07:12:17.316Z,252.17
2023-05-08T07:13:17.502Z,254.04
2023-05-08T07:14:17.655Z,256.60
2023-05-08T07:15:26.120Z,259.66
2023-05-08T07:16:18.041Z,262.67
2023-05-08T07:17:17.026Z,265.94
2023-05-08T07:18:17.163Z,269.59
2023-05-08T07:19:17.317Z,272.30
2023-05-08T07:20:17.465Z,274.95
2023-05-08T07:21:17.561Z,276.95
2023-05-08T07:22:17.768Z,277.49
2023-05-08T07:23:16.868Z,276.03
2023-05-08T07:24:18.042Z,274.44
2023-05-08T07:25:17.151Z,271.70
2023-05-08T07:26:17.373Z,269.06
2023-05-08T07:27:17.448Z,266.51
2023-05-08T07:28:17.594Z,265.23
2023-05-08T07:29:16.727Z,264.87
2023-05-08T07:30:16.937Z,266.00
2023-05-08T07:31:17.078Z,267.93
2023-05-08T07:32:17.322Z,270.29
2023-05-08T07:33:17.471Z,272.48
2023-05-08T07:34:17.614Z,274.73
2023-05-08T07:35:17.029Z,277.38
2023-05-08T07:36:16.942Z,280.38
2023-05-08T07:37:17.192Z,282.19
2023-05-08T07:38:17.315Z,284.36
2023-05-08T07:39:17.485Z,286.69
2023-05-08T07:40:16.600Z,290.02
2023-05-08T07:41:16.817Z,293.77
2023-05-08T07:42:16.951Z,297.36
2023-05-08T07:43:17.188Z,301.77
2023-05-08T07:44:17.257Z,306.15
2023-05-08T07:45:17.522Z,310.97
2023-05-08T07:46:16.663Z,316.55
2023-05-08T07:47:16.719Z,322.41
2023-05-08T07:48:17.979Z,328.07
2023-05-08T07:49:16.965Z,332.45
2023-05-08T07:50:17.121Z,337.72
2023-05-08T07:51:17.275Z,359.96
2023-05-08T07:52:16.459Z,350.76
2023-05-08T07:53:18.654Z,373.42
2023-05-08T07:54:16.678Z,379.44
2023-05-08T07:55:16.830Z,385.62
2023-05-08T07:56:16.981Z,391.29
2023-05-08T07:57:17.141Z,398.62
2023-05-08T07:58:17.264Z,406.18
2023-05-08T07:59:16.404Z,414.13
2023-05-08T08:00:16.490Z,421.39
2023-05-08T08:01:16.660Z,428.62
2023-05-08T08:02:16.931Z,436.18
2023-05-08T08:03:17.076Z,443.11
2023-05-08T08:04:17.136Z,450.21
2023-05-08T08:05:16.512Z,457.32
2023-05-08T08:06:16.386Z,462.95
2023-05-08T08:07:16.532Z,466.60
2023-05-08T08:08:16.813Z,465.66
2023-05-08T08:09:16.873Z,460.37
2023-05-08T08:10:17.035Z,453.78
2023-05-08T08:11:16.103Z,442.13
2023-05-08T08:12:16.292Z,430.12
2023-05-08T08:13:16.527Z,417.38
2023-05-08T08:14:16.708Z,402.22
2023-05-08T08:15:16.847Z,389.04
2023-05-08T08:16:17.106Z,378.53
2023-05-08T08:17:16.252Z,376.96
2023-05-08T08:18:16.373Z,379.54
2023-05-08T08:19:16.579Z,377.97
2023-05-08T08:20:16.741Z,375.08
2023-05-08T08:21:16.896Z,371.08
2023-05-08T08:22:16.080Z,346.81
2023-05-08T08:23:16.179Z,335.18
2023-05-08T08:24:16.456Z,324.78
2023-05-08T08:25:16.536Z,318.35
2023-05-08T08:26:16.691Z,313.60
2023-05-08T08:27:16.900Z,315.22
2023-05-08T08:28:16.108Z,312.64
2023-05-08T08:29:16.230Z,309.74
2023-05-08T08:30:17.949Z,310.78
2023-05-08T08:31:16.737Z,313.99
2023-05-08T08:32:16.816Z,314.00
2023-05-08T08:33:18.796Z,313.08
2023-05-08T08:34:16.188Z,310.92
2023-05-08T08:35:16.907Z,312.38
2023-05-08T08:36:16.497Z,312.13
2023-05-08T08:37:16.679Z,308.07
2023-05-08T08:38:15.836Z,305.58
2023-05-08T08:39:16.136Z,304.56
2023-05-08T08:40:16.221Z,305.59
2023-05-08T08:41:16.381Z,307.12
2023-05-08T08:42:16.652Z,310.44
2023-05-08T08:43:15.676Z,312.48
2023-05-08T08:44:15.835Z,313.93
2023-05-08T08:45:16.404Z,314.86
2023-05-08T08:46:16.263Z,317.43
2023-05-08T08:47:16.367Z,322.74
2023-05-08T08:48:16.570Z,328.28
2023-05-08T08:49:15.713Z,332.60
2023-05-08T08:50:15.934Z,334.68
2023-05-08T08:51:16.086Z,334.29
2023-05-08T08:52:16.211Z,330.63
2023-05-08T08:53:16.394Z,324.37
2023-05-08T08:54:15.545Z,318.89
2023-05-08T08:55:15.840Z,314.98
2023-05-08T08:56:15.868Z,311.77
2023-05-08T08:57:16.197Z,310.15
2023-05-08T08:58:16.271Z,310.35
2023-05-08T08:59:16.441Z,312.20
2023-05-08T09:00:15.641Z,312.52
2023-05-08T09:01:16.731Z,313.18
2023-05-08T09:02:16.917Z,313.20
2023-05-08T09:03:16.251Z,313.70
2023-05-08T09:04:17.309Z,314.39
2023-05-08T09:05:15.609Z,314.53
2023-05-08T09:06:15.570Z,314.14
2023-05-08T09:07:15.787Z,313.64
2023-05-08T09:08:15.945Z,312.68
2023-05-08T09:09:16.207Z,311.14
2023-05-08T09:10:16.310Z,309.01
2023-05-08T09:11:15.481Z,307.02
2023-05-08T09:12:15.669Z,306.08
2023-05-08T09:13:17.328Z,304.57
2023-05-08T09:14:15.975Z,301.55
2023-05-08T09:15:16.317Z,296.97
2023-05-08T09:16:15.301Z,292.19
2023-05-08T09:17:15.449Z,286.72
2023-05-08T09:18:16.591Z,280.94
2023-05-08T09:19:15.824Z,276.54
2023-05-08T09:20:16.165Z,273.39
2023-05-08T09:21:16.159Z,271.28
2023-05-08T09:22:15.256Z,270.03
2023-05-08T09:23:15.421Z,269.38
2023-05-08T09:24:15.654Z,269.62
2023-05-08T09:25:15.949Z,269.71
2023-05-08T09:26:15.973Z,270.59
2023-05-08T09:27:16.117Z,272.48
2023-05-08T09:28:15.373Z,273.74
2023-05-08T09:29:15.422Z,273.62
2023-05-08T09:30:15.629Z,272.99
2023-05-08T09:31:15.795Z,271.89
2023-05-08T09:32:17.016Z,270.55
2023-05-08T09:33:15.372Z,268.76
2023-05-08T09:34:15.200Z,267.15
2023-05-08T09:35:15.714Z,264.89
2023-05-08T09:36:16.539Z,261.89
2023-05-08T09:37:16.690Z,258.28
2023-05-08T09:38:16.162Z,254.57
2023-05-08T09:39:15.989Z,250.81
2023-05-08T09:40:15.195Z,247.22
2023-05-08T09:41:16.389Z,243.47
2023-05-08T09:42:15.549Z,240.30
2023-05-08T09:43:15.750Z,237.76
2023-05-08T09:44:16.036Z,235.36
2023-05-08T09:45:16.049Z,232.31
2023-05-08T09:46:15.246Z,229.89
2023-05-08T09:47:15.354Z,228.25
2023-05-08T09:48:15.499Z,227.22
2023-05-08T09:49:16.676Z,227.16
2023-05-08T09:50:16.033Z,227.09
2023-05-08T09:51:14.893Z,227.10
2023-05-08T09:52:16.147Z,229.12
2023-05-08T09:53:15.248Z,233.80
2023-05-08T09:54:15.370Z,240.58
2023-05-08T09:55:15.545Z,250.32
2023-05-08T09:56:15.718Z,261.94
2023-05-08T09:57:14.808Z,274.38
2023-05-08T09:58:14.990Z,286.56
2023-05-08T09:59:15.177Z,297.79
2023-05-08T10:00:15.505Z,307.72
2023-05-08T10:01:15.575Z,316.48
2023-05-08T10:02:15.736Z,323.09
2023-05-08T10:03:14.830Z,343.82
2023-05-08T10:04:14.999Z,347.66
2023-05-08T10:05:16.130Z,349.65
2023-05-08T10:06:15.350Z,349.75
2023-05-08T10:07:15.511Z,348.45
2023-05-08T10:08:14.671Z,330.86
2023-05-08T10:09:17.848Z,326.35
2023-05-08T10:10:15.048Z,322.10
2023-05-08T10:11:16.079Z,317.54
2023-05-08T10:12:16.292Z,310.56
2023-05-08T10:13:15.582Z,302.79
2023-05-08T10:14:15.531Z,296.58
2023-05-08T10:15:14.773Z,290.93
2023-05-08T10:16:14.963Z,285.59
2023-05-08T10:17:16.131Z,281.55
2023-05-08T10:18:15.292Z,278.47
2023-05-08T10:19:14.450Z,277.11
2023-05-08T10:20:14.838Z,277.86
2023-05-08T10:21:14.803Z,277.97
2023-05-08T10:22:14.975Z,279.41
2023-05-08T10:23:16.112Z,282.31
2023-05-08T10:24:15.383Z,286.49
2023-05-08T10:25:15.409Z,293.05
2023-05-08T10:26:14.644Z,301.70
2023-05-08T10:27:15.815Z,309.78
2023-05-08T10:28:14.996Z,316.05
2023-05-08T10:29:15.232Z,321.04
2023-05-08T10:30:14.839Z,323.58
2023-05-08T10:31:14.624Z,340.43
2023-05-08T10:32:14.711Z,342.67
2023-05-08T10:33:14.854Z,344.77
2023-05-08T10:34:15.029Z,347.22
2023-05-08T10:35:15.225Z,350.24
2023-05-08T10:36:14.301Z,356.15
2023-05-08T10:37:14.450Z,363.36
2023-05-08T10:38:14.594Z,371.01
2023-05-08T10:39:15.761Z,379.66
2023-05-08T10:40:16.212Z,388.80
2023-05-08T10:41:15.223Z,397.97
2023-05-08T10:42:15.230Z,406.61
2023-05-08T10:43:14.386Z,413.66
2023-05-08T10:44:14.537Z,416.98
2023-05-08T10:45:14.720Z,416.59
2023-05-08T10:46:14.870Z,413.13
2023-05-08T10:47:15.084Z,408.58
2023-05-08T10:48:15.145Z,405.11
2023-05-08T10:49:15.476Z,404.49
2023-05-08T10:50:15.687Z,405.26
2023-05-08T10:51:15.532Z,407.93
2023-05-08T10:52:15.774Z,411.67
2023-05-08T10:53:15.062Z,414.92
2023-05-08T10:54:14.019Z,420.13
2023-05-08T10:55:14.212Z,425.94
2023-05-08T10:56:15.358Z,433.67
2023-05-08T10:57:15.526Z,443.17
2023-05-08T10:58:15.662Z,454.19
2023-05-08T10:59:14.908Z,466.37
2023-05-08T11:00:14.176Z,479.86
2023-05-08T11:01:14.201Z,492.93
2023-05-08T11:02:14.486Z,505.02
2023-05-08T11:03:23.846Z,516.81
2023-05-08T11:04:15.719Z,527.80
2023-05-08T11:05:15.121Z,536.41
2023-05-08T11:06:13.869Z,543.79
2023-05-08T11:07:14.022Z,549.12
2023-05-08T11:08:14.190Z,553.70
2023-05-08T11:09:14.360Z,559.08
2023-05-08T11:10:14.699Z,564.72
2023-05-08T11:11:14.620Z,572.01
2023-05-08T11:12:13.768Z,579.98
2023-05-08T11:13:13.991Z,587.98
2023-05-08T11:14:14.100Z,597.46
2023-05-08T11:15:14.341Z,606.01
2023-05-08T11:16:14.545Z,616.41
2023-05-08T11:17:14.629Z,624.11
2023-05-08T11:18:13.784Z,630.02
2023-05-08T11:19:13.885Z,635.47
2023-05-08T11:20:14.247Z,638.44
2023-05-08T11:21:14.182Z,640.26
2023-05-08T11:22:14.397Z,643.96
2023-05-08T11:23:14.539Z,649.71
2023-05-08T11:24:13.633Z,655.16
2023-05-08T11:25:13.920Z,661.89
2023-05-08T11:26:13.981Z,668.35
2023-05-08T11:27:14.091Z,672.86
2023-05-08T11:28:14.330Z,674.91
2023-05-08T11:29:14.448Z,673.06
2023-05-08T11:30:14.569Z,669.12
2023-05-08T11:31:13.743Z,662.43
2023-05-08T11:32:14.856Z,653.71
2023-05-08T11:33:14.089Z,645.49
2023-05-08T11:34:14.229Z,638.23
2023-05-08T11:35:14.403Z,632.66
2023-05-08T11:36:13.564Z,629.44
2023-05-08T11:37:13.701Z,628.72
2023-05-08T11:38:14.819Z,630.84
2023-05-08T11:39:14.064Z,636.45
2023-05-08T11:40:14.369Z,644.07
2023-05-08T11:41:14.416Z,654.46
2023-05-08T11:42:13.462Z,666.89
2023-05-08T11:43:13.577Z,682.24
2023-05-08T11:44:14.735Z,698.36
2023-05-08T11:45:14.089Z,716.02
2023-05-08T11:46:14.111Z,733.71
2023-05-08T11:47:14.337Z,751.54
2023-05-08T11:48:13.442Z,769.68
2023-05-08T11:49:13.539Z,787.90
2023-05-08T11:50:13.998Z,806.61
2023-05-08T11:51:13.896Z,825.96
2023-05-08T11:52:14.868Z,844.61
2023-05-08T11:53:14.080Z,862.35
2023-05-08T11:54:13.219Z,880.49
2023-05-08T11:55:13.317Z,898.81
2023-05-08T11:56:13.461Z,916.22
2023-05-08T11:57:13.607Z,932.07
2023-05-08T11:58:13.732Z,944.83
2023-05-08T11:59:13.841Z,953.85
2023-05-08T12:00:14.234Z,959.76
2023-05-08T12:01:13.097Z,965.06
2023-05-08T12:02:13.272Z,963.03
2023-05-08T12:03:13.551Z,960.99
2023-05-08T12:04:13.662Z,964.62
2023-05-08T12:05:14.703Z,964.66
2023-05-08T12:06:14.725Z,959.22
2023-05-08T12:07:14.878Z,954.96
2023-05-08T12:08:13.984Z,950.54
2023-05-08T12:09:13.416Z,946.60
2023-05-08T12:10:13.540Z,949.25
2023-05-08T12:11:13.453Z,948.19
2023-05-08T12:12:13.640Z,946.72
2023-05-08T12:13:13.801Z,946.54
2023-05-08T12:14:13.900Z,952.05
2023-05-08T12:15:13.079Z,958.17
2023-05-08T12:16:13.121Z,962.63
2023-05-08T12:17:13.314Z,963.97
2023-05-08T12:18:13.491Z,956.17
2023-05-08T12:19:13.564Z,949.45
2023-05-08T12:20:14.020Z,942.91
2023-05-08T12:21:13.757Z,932.89
2023-05-08T12:22:12.870Z,918.71
2023-05-08T12:23:13.013Z,924.34
2023-05-08T12:24:13.125Z,928.49
2023-05-08T12:25:13.437Z,937.88
2023-05-08T12:26:13.540Z,948.86
2023-05-08T12:27:13.530Z,953.40
2023-05-08T12:28:13.663Z,953.70
2023-05-08T12:29:17.888Z,949.36
2023-05-08T12:30:13.210Z,939.20
2023-05-08T12:31:14.148Z,925.48
2023-05-08T12:32:13.174Z,911.08
2023-05-08T12:33:13.360Z,913.43
2023-05-08T12:34:13.386Z,918.38
2023-05-08T12:35:13.615Z,916.69
2023-05-08T12:36:13.634Z,913.85
2023-05-08T12:37:12.770Z,921.09
2023-05-08T12:38:12.983Z,927.94
2023-05-08T12:39:13.110Z,937.15
2023-05-08T12:40:13.314Z,949.42
2023-05-08T12:41:14.262Z,963.32
2023-05-08T12:42:13.413Z,973.34
2023-05-08T12:43:13.604Z,975.97
2023-05-08T12:44:13.612Z,971.24
2023-05-08T12:45:13.715Z,966.68
2023-05-08T12:46:13.891Z,967.78
2023-05-08T12:47:13.036Z,977.09